Terminal Aerodrome Forecast
Issued by NWS Sterling, VA

Current Version | Previous Version | Graphics & Text | Print | Product List | Glossary On
Versions: 1 2 3 4 5 6 7 8 9 10 11 12 13 14 15 16 17 18 19 20 21 22 23 24 25
523
FTUS41 KLWX 092115 AAA
TAFDCA
TAF AMD
KDCA 092115Z 0921/1024 35005KT 2SM -SN BR BKN015 OVC029
     FM100000 34005KT 3SM -SN BR SCT015 OVC025
     FM100100 32004KT 5SM -SN OVC030
     FM100200 VRB03KT P6SM BKN050
     FM100500 28006KT P6SM BKN080
     FM101400 28014G18KT P6SM FEW250
     FM102200 25009KT P6SM SCT100=

USA.gov is the U.S. government's official web portal to all federal, state and local government web resources and services.